Albuquerque, NM (87120)

5:48 PM MST on February 05, 2016 (GMT -0700)
Taylor Ranch (Golf Course & Homestead Cir) | | Change Station
CLOSE
Current Station
Personal Weather Station
Location: Albuquerque, NM
Elevation: 5126 ft
Nearby Weather Stations

Elev 5126 ft 35.16 °N, 106.69 °W | Updated 8 seconds ago

Clear
Clear
39.8 °F
Feels Like 40 °F
N
3.0
Wind Variable Wind from NNW
Gusts 10.0 mph

Today
High -- | Low -- °F
--% Chance of Precip.
Yesterday
High -- | Low -- °F
Precip. -- in
Pressure 30.40 in
Visibility 10.0 miles
Clouds Clear
Windchill 40 °F
Dew Point 9 °F
Humidity 28%
Rainfall 0.00 in
Snow Depth Not available.
7:02 AM 5:39 PM
Waning Crescent, 8% visible
METAR KABQ 052352Z 36010KT 10SM CLR 05/M17 A3036 RMK AO2 SLP294 T00501167 10061 20000 55000
Pressure 30.40 in
Visibility 10.0 miles
Clouds Clear
Windchill 40 °F
Dew Point 9 °F
Humidity 28%
Rainfall 0.00 in
Snow Depth Not available.
7:02 AM 5:39 PM
Waning Crescent, 8% visible
METAR KABQ 052352Z 36010KT 10SM CLR 05/M17 A3036 RMK AO2 SLP294 T00501167 10061 20000 55000

10-Day Weather Forecast

Almanac

Astronomy

Feb. 05, 2016 Rise Set
Actual Time
Civil Twilight
Nautical Twilight
Astronomical Twilight
Moon
Length of Visible Light
Length of Day
Tomorrow will be .
, % of the Moon is Illuminated

Today's Extremes

State Highs State Lows

Community

WunderPhotos

Upload Photos

1,890,900 photos uploaded!

WunderBlog® & News

Nearby

Air Quality

  Air Quality AQ Index Pollutant
Not available.

Snow Depth

Station Depth Elevation

Earthquake Activity

City Distance Mag. Time & Date
Minimum magnitude displayed is 2.5.

Coastal Water Temperatures

Place Temperature

Stations

Nearby Weather Stations

Station Location Temp. Windchill Dew Point Humidity Wind Precip. Elev Updated Type
                   

Watches & Warnings

There are currently no watches in effect.